This is the latest recevied weather packets stored in our database for station/object N7TUG-8. If no packets are shown the sender has not sent any weather packets the latest 10 day(s).
| Time | Temp. | Humidity | Pressure | Rain* | Wind** | Luminosity | Snow |
|---|---|---|---|---|---|---|---|
| 1777943251 | 25° C | 57% | 1008.3 hPa | 0 mm | 2.68 m/s, 156° | - | - |
| 1777943036 | 25.56° C | 57% | 1008.3 hPa | 0 mm | 2.68 m/s, 165° | - | - |
| 1777942386 | 25.56° C | 55% | 1008.3 hPa | 0 mm | 2.24 m/s, 168° | - | - |
| 1777942227 | 25.56° C | 55% | 1008.3 hPa | 0 mm | 2.24 m/s, 168° | - | - |
| 1777941427 | 25.56° C | 54% | 1008.4 hPa | 0 mm | 2.68 m/s, 170° | - | - |
| 1777941387 | 25.56° C | 54% | 1008.4 hPa | 0 mm | 2.68 m/s, 170° | - | - |
| 1777940576 | 26.11° C | 53% | 1008.4 hPa | 0 mm | 2.24 m/s, 166° | - | - |
| 1777939746 | 26.11° C | 52% | 1008.5 hPa | 0 mm | 1.79 m/s, 157° | - | - |
| 1777938915 | 26.67° C | 51% | 1008.5 hPa | 0 mm | 1.79 m/s, 159° | - | - |
| 1777938207 | 26.67° C | 51% | 1008.6 hPa | 0 mm | 1.79 m/s, 158° | - | - |
| 1777938106 | 26.67° C | 51% | 1008.6 hPa | 0 mm | 1.79 m/s, 158° | - | - |
| 1777937317 | 26.67° C | 50% | 1008.5 hPa | 0 mm | 1.79 m/s, 179° | - | - |
| 1777936647 | 26.67° C | 50% | 1008.5 hPa | 0 mm | 1.79 m/s, 148° | - | - |
| 1777936541 | 26.67° C | 50% | 1008.5 hPa | 0 mm | 1.79 m/s, 148° | - | - |
| 1777935862 | 25.56° C | 51% | 1008.7 hPa | 0 mm | 2.24 m/s, 146° | - | - |
| 1777935621 | 25.56° C | 51% | 1008.7 hPa | 0 mm | 2.24 m/s, 146° | - | - |
| 1777934841 | 25.56° C | 51% | 1009 hPa | 0 mm | 2.24 m/s, 140° | - | - |
| 1777934216 | 26.67° C | 51% | 1009 hPa | 0 mm | 1.79 m/s, 158° | - | - |
| 1777934031 | 26.67° C | 51% | 1009.1 hPa | 0 mm | 1.34 m/s, 152° | - | - |
| 1777933416 | 26.67° C | 52% | 1009.3 hPa | 0 mm | 1.34 m/s, 180° | - | - |
| 1777933115 | 26.67° C | 51% | 1009.3 hPa | 0 mm | 1.34 m/s, 160° | - | - |
| 1777932592 | 26.11° C | 53% | 1009.4 hPa | 0 mm | 1.34 m/s, 180° | - | - |
| 1777932266 | 25.56° C | 55% | 1009.4 hPa | 0 mm | 2.24 m/s, 154° | - | - |
| 1777931856 | 25° C | 55% | 1009.5 hPa | 0 mm | 2.24 m/s, 148° | - | - |
| 1777931471 | 25° C | 55% | 1009.5 hPa | 0 mm | 1.79 m/s, 149° | - | - |
* Rain latest hour (hover to see other rain measurements)
** Current wind speed in m/s (hover to see current wind gust speed)